Time,TemperatureF,DewpointF,PressureIn,WindDirection,WindDirectionDegrees,WindSpeedMPH,WindSpeedGustMPH,Humidity,HourlyPrecipIn,Conditions,Clouds,dailyrainin,SoftwareType,DateUTC
2013-01-10 00:00:00,34.5,31.0,30.30,South,188,1.0,2.0,87,0.00,,,0.01,Wunderground v.1.15,2013-01-10 05:00:00,
2013-01-10 00:05:00,34.8,32.2,30.30,SSW,193,2.0,3.0,90,0.00,,,0.01,Wunderground v.1.15,2013-01-10 05:05:00,
2013-01-10 00:15:00,33.8,31.5,30.30,SSE,148,3.0,3.0,91,0.00,,,0.00,Wunderground v.1.15,2013-01-10 05:15:00,
2013-01-10 00:20:00,33.5,31.2,30.31,SSW,194,2.0,2.0,91,0.00,,,0.00,Wunderground v.1.15,2013-01-10 05:20:00,
2013-01-10 00:30:00,34.4,32.3,30.31,South,169,1.0,1.0,92,0.00,,,0.00,Wunderground v.1.15,2013-01-10 05:30:00,
2013-01-10 00:35:00,34.5,32.1,30.31,South,169,0.0,1.0,91,0.00,,,0.00,Wunderground v.1.15,2013-01-10 05:35:00,
2013-01-10 00:40:00,34.4,32.0,30.31,SSE,149,0.0,0.0,91,0.00,,,0.00,Wunderground v.1.15,2013-01-10 05:40:00,
2013-01-10 00:50:00,34.5,32.1,30.32,SSE,149,0.0,0.0,91,0.00,,,0.00,Wunderground v.1.15,2013-01-10 05:50:00,
2013-01-10 00:55:00,34.4,32.0,30.32,SSE,149,0.0,0.0,91,0.00,,,0.00,Wunderground v.1.15,2013-01-10 05:55:00,
2013-01-10 01:00:00,34.5,32.1,30.32,SSE,150,0.0,0.0,91,0.00,,,0.00,Wunderground v.1.15,2013-01-10 06:00:00,
2013-01-10 01:10:00,34.8,32.4,30.33,ESE,120,0.0,1.0,91,0.00,,,0.00,Wunderground v.1.15,2013-01-10 06:10:00,
2013-01-10 01:20:00,35.6,32.4,30.33,East,79,1.0,2.0,88,0.00,,,0.00,Wunderground v.1.15,2013-01-10 06:20:00,
2013-01-10 01:25:00,36.3,32.2,30.34,ENE,75,2.0,2.0,85,0.00,,,0.00,Wunderground v.1.15,2013-01-10 06:25:00,
2013-01-10 01:30:00,36.9,32.2,30.34,East,100,2.0,3.0,83,0.00,,,0.00,Wunderground v.1.15,2013-01-10 06:30:00,
2013-01-10 01:40:00,38.4,31.8,30.35,SE,134,3.0,3.0,77,0.00,,,0.00,Wunderground v.1.15,2013-01-10 06:40:00,
2013-01-10 01:45:00,37.1,30.6,30.35,SE,134,3.0,3.0,77,0.00,,,0.00,Wunderground v.1.15,2013-01-10 06:45:00,
2013-01-10 01:50:00,37.2,31.0,30.35,ESE,114,2.0,4.0,78,0.00,,,0.00,Wunderground v.1.15,2013-01-10 06:50:00,
2013-01-10 02:00:00,38.6,30.7,30.36,SE,134,4.0,5.0,73,0.00,,,0.00,Wunderground v.1.15,2013-01-10 07:00:00,
2013-01-10 02:10:00,39.0,30.7,30.35,ESE,112,4.0,4.0,72,0.00,,,0.00,Wunderground v.1.15,2013-01-10 07:10:00,
2013-01-10 02:20:00,38.7,30.4,30.36,ESE,104,4.0,4.0,72,0.00,,,0.00,Wunderground v.1.15,2013-01-10 07:20:00,
2013-01-10 02:25:00,38.3,30.1,30.36,SE,124,3.0,4.0,72,0.00,,,0.00,Wunderground v.1.15,2013-01-10 07:25:00,
2013-01-10 02:35:00,38.3,30.1,30.37,SE,124,2.0,2.0,72,0.00,,,0.00,Wunderground v.1.15,2013-01-10 07:35:00,
2013-01-10 02:40:00,38.2,29.6,30.37,SE,136,2.0,3.0,71,0.00,,,0.00,Wunderground v.1.15,2013-01-10 07:40:00,
2013-01-10 02:50:00,37.6,29.0,30.38,South,169,2.0,3.0,71,0.00,,,0.00,Wunderground v.1.15,2013-01-10 07:50:00,
2013-01-10 02:55:00,36.8,29.3,30.38,SE,131,3.0,4.0,74,0.00,,,0.00,Wunderground v.1.15,2013-01-10 07:55:00,
2013-01-10 03:00:00,37.2,29.3,30.38,SE,134,4.0,4.0,73,0.00,,,0.00,Wunderground v.1.15,2013-01-10 08:00:00,
2013-01-10 03:10:00,38.0,29.4,30.38,SE,139,4.0,4.0,71,0.00,,,0.00,Wunderground v.1.15,2013-01-10 08:10:00,
2013-01-10 03:20:00,38.7,29.0,30.38,SE,146,5.0,5.0,68,0.00,,,0.00,Wunderground v.1.15,2013-01-10 08:20:00,
2013-01-10 03:25:00,39.3,29.3,30.38,SSE,149,5.0,5.0,67,0.00,,,0.00,Wunderground v.1.15,2013-01-10 08:25:00,
2013-01-10 03:35:00,39.3,28.9,30.39,SSE,155,4.0,6.0,66,0.00,,,0.00,Wunderground v.1.15,2013-01-10 08:35:00,
2013-01-10 03:45:00,40.5,28.9,30.39,SE,136,6.0,8.0,63,0.00,,,0.00,Wunderground v.1.15,2013-01-10 08:45:00,
2013-01-10 03:50:00,40.8,29.2,30.39,SE,143,6.0,6.0,63,0.00,,,0.00,Wunderground v.1.15,2013-01-10 08:50:00,
2013-01-10 04:00:00,40.5,28.9,30.39,SE,141,4.0,4.0,63,0.00,,,0.00,Wunderground v.1.15,2013-01-10 09:00:00,
2013-01-10 04:10:00,39.9,28.7,30.38,SE,127,4.0,4.0,64,0.00,,,0.00,Wunderground v.1.15,2013-01-10 09:10:00,
2013-01-10 04:15:00,39.9,29.1,30.39,SE,127,4.0,4.0,65,0.00,,,0.00,Wunderground v.1.15,2013-01-10 09:15:00,
2013-01-10 04:20:00,39.9,29.1,30.39,ESE,115,3.0,3.0,65,0.00,,,0.00,Wunderground v.1.15,2013-01-10 09:20:00,
2013-01-10 04:25:00,39.5,28.7,30.40,ESE,119,2.0,3.0,65,0.00,,,0.00,Wunderground v.1.15,2013-01-10 09:25:00,
2013-01-10 04:35:00,38.9,28.5,30.40,SE,139,2.0,2.0,66,0.00,,,0.00,Wunderground v.1.15,2013-01-10 09:35:00,
2013-01-10 04:40:00,38.9,28.5,30.40,ESE,116,3.0,5.0,66,0.00,,,0.00,Wunderground v.1.15,2013-01-10 09:40:00,
2013-01-10 04:50:00,39.7,28.5,30.39,SE,131,8.0,8.0,64,0.00,,,0.00,Wunderground v.1.15,2013-01-10 09:50:00,
2013-01-10 04:55:00,39.7,28.5,30.39,SSE,148,7.0,8.0,64,0.00,,,0.00,Wunderground v.1.15,2013-01-10 09:55:00,
2013-01-10 05:00:00,39.6,28.8,30.39,SE,127,7.0,8.0,65,0.00,,,0.00,Wunderground v.1.15,2013-01-10 10:00:00,
2013-01-10 05:10:00,39.8,28.6,30.41,East,91,5.0,5.0,64,0.00,,,0.00,Wunderground v.1.15,2013-01-10 10:10:00,
2013-01-10 05:20:00,39.0,28.6,30.41,SE,125,2.0,4.0,66,0.00,,,0.00,Wunderground v.1.15,2013-01-10 10:20:00,
2013-01-10 05:25:00,39.1,28.7,30.41,ESE,115,3.0,4.0,66,0.00,,,0.00,Wunderground v.1.15,2013-01-10 10:25:00,
2013-01-10 05:30:00,39.0,28.6,30.41,SE,131,4.0,6.0,66,0.00,,,0.00,Wunderground v.1.15,2013-01-10 10:30:00,
2013-01-10 05:40:00,39.0,28.6,30.41,ESE,117,5.0,5.0,66,0.00,,,0.00,Wunderground v.1.15,2013-01-10 10:40:00,
2013-01-10 05:50:00,38.1,28.5,30.42,ENE,74,3.0,4.0,68,0.00,,,0.00,Wunderground v.1.15,2013-01-10 10:50:00,
2013-01-10 05:55:00,37.8,28.5,30.43,East,82,3.0,4.0,69,0.00,,,0.00,Wunderground v.1.15,2013-01-10 10:55:00,
2013-01-10 06:00:00,37.9,28.6,30.42,ESE,117,4.0,5.0,69,0.00,,,0.00,Wunderground v.1.15,2013-01-10 11:00:00,
2013-01-10 06:10:00,38.4,28.8,30.42,SE,138,6.0,6.0,68,0.00,,,0.00,Wunderground v.1.15,2013-01-10 11:10:00,
2013-01-10 06:15:00,38.7,28.7,30.42,ESE,119,7.0,10.0,67,0.00,,,0.00,Wunderground v.1.15,2013-01-10 11:15:00,
2013-01-10 06:25:00,38.6,28.6,30.43,ESE,121,6.0,7.0,67,0.00,,,0.00,Wunderground v.1.15,2013-01-10 11:25:00,
2013-01-10 06:35:00,38.3,28.7,30.44,ESE,114,5.0,8.0,68,0.00,,,0.00,Wunderground v.1.15,2013-01-10 11:35:00,
2013-01-10 06:40:00,38.0,28.7,30.44,SE,131,5.0,5.0,69,0.00,,,0.00,Wunderground v.1.15,2013-01-10 11:40:00,
2013-01-10 06:45:00,37.9,28.6,30.44,SE,134,5.0,5.0,69,0.00,,,0.00,Wunderground v.1.15,2013-01-10 11:45:00,
2013-01-10 06:55:00,38.0,28.7,30.44,ESE,103,7.0,9.0,69,0.00,,,0.00,Wunderground v.1.15,2013-01-10 11:55:00,
2013-01-10 07:00:00,37.9,28.6,30.45,SE,135,6.0,6.0,69,0.00,,,0.00,Wunderground v.1.15,2013-01-10 12:00:00,
2013-01-10 07:10:00,37.7,28.8,30.45,ESE,122,5.0,5.0,70,0.00,,,0.00,Wunderground v.1.15,2013-01-10 12:10:00,
2013-01-10 07:20:00,37.4,28.5,30.46,SE,136,3.0,3.0,70,0.00,,,0.00,Wunderground v.1.15,2013-01-10 12:20:00,
2013-01-10 07:25:00,37.1,28.6,30.46,SSE,151,2.0,3.0,71,0.00,,,0.00,Wunderground v.1.15,2013-01-10 12:25:00,
2013-01-10 07:35:00,36.8,28.6,30.46,SE,129,2.0,4.0,72,0.00,,,0.00,Wunderground v.1.15,2013-01-10 12:35:00,
2013-01-10 07:40:00,36.8,28.6,30.46,ESE,119,3.0,3.0,72,0.00,,,0.00,Wunderground v.1.15,2013-01-10 12:40:00,
2013-01-10 07:50:00,36.9,28.7,30.47,ESE,105,2.0,6.0,72,0.00,,,0.00,Wunderground v.1.15,2013-01-10 12:50:00,
2013-01-10 07:55:00,37.6,28.7,30.47,SSE,152,3.0,6.0,70,0.00,,,0.00,Wunderground v.1.15,2013-01-10 12:55:00,
2013-01-10 08:00:00,37.9,28.6,30.47,ESE,121,5.0,5.0,69,0.00,,,0.00,Wunderground v.1.15,2013-01-10 13:00:00,
2013-01-10 08:10:00,37.9,28.6,30.48,NE,51,2.0,2.0,69,0.00,,,0.00,Wunderground v.1.15,2013-01-10 13:10:00,
2013-01-10 08:20:00,38.0,28.7,30.49,NE,55,1.0,1.0,69,0.00,,,0.00,Wunderground v.1.15,2013-01-10 13:20:00,
2013-01-10 08:25:00,38.3,28.7,30.49,SSE,148,1.0,1.0,68,0.00,,,0.00,Wunderground v.1.15,2013-01-10 13:25:00,
2013-01-10 08:30:00,38.6,28.6,30.49,SSE,148,2.0,2.0,67,0.00,,,0.00,Wunderground v.1.15,2013-01-10 13:30:00,
2013-01-10 08:40:00,39.0,28.6,30.48,SSE,163,4.0,4.0,66,0.00,,,0.00,Wunderground v.1.15,2013-01-10 13:40:00,
2013-01-10 08:50:00,39.3,28.9,30.49,SSE,148,6.0,6.0,66,0.00,,,0.00,Wunderground v.1.15,2013-01-10 13:50:00,
2013-01-10 09:00:00,39.5,28.7,30.49,SSE,156,4.0,4.0,65,0.00,,,0.00,Wunderground v.1.15,2013-01-10 14:00:00,
2013-01-10 09:10:00,39.7,28.9,30.50,SE,139,5.0,5.0,65,0.00,,,0.00,Wunderground v.1.15,2013-01-10 14:10:00,
2013-01-10 09:20:00,40.0,28.8,30.50,SE,142,5.0,8.0,64,0.00,,,0.00,Wunderground v.1.15,2013-01-10 14:20:00,
2013-01-10 09:25:00,40.1,28.9,30.50,SE,136,6.0,8.0,64,0.00,,,0.00,Wunderground v.1.15,2013-01-10 14:25:00,
2013-01-10 09:35:00,40.4,29.6,30.51,SE,136,5.0,6.0,65,0.00,,,0.00,Wunderground v.1.15,2013-01-10 14:35:00,
2013-01-10 09:45:00,40.7,29.5,30.51,SE,129,4.0,5.0,64,0.00,,,0.00,Wunderground v.1.15,2013-01-10 14:45:00,
2013-01-10 09:50:00,40.8,29.2,30.52,SE,137,5.0,6.0,63,0.00,,,0.00,Wunderground v.1.15,2013-01-10 14:50:00,
2013-01-10 10:00:00,40.9,29.3,30.52,SE,141,5.0,5.0,63,0.00,,,0.00,Wunderground v.1.15,2013-01-10 15:00:00,
2013-01-10 10:10:00,41.2,29.5,30.52,SE,142,5.0,5.0,63,0.00,,,0.00,Wunderground v.1.15,2013-01-10 15:10:00,
2013-01-10 10:20:00,41.3,29.3,30.53,SSE,161,6.0,6.0,62,0.00,,,0.00,Wunderground v.1.15,2013-01-10 15:20:00,
2013-01-10 10:25:00,41.5,29.0,30.53,SE,132,6.0,6.0,61,0.00,,,0.00,Wunderground v.1.15,2013-01-10 15:25:00,
2013-01-10 10:30:00,41.5,29.0,30.53,SE,134,6.0,6.0,61,0.00,,,0.00,Wunderground v.1.15,2013-01-10 15:30:00,
2013-01-10 10:35:00,41.7,29.2,30.53,SE,124,6.0,6.0,61,0.00,,,0.00,Wunderground v.1.15,2013-01-10 15:35:00,
2013-01-10 10:45:00,41.8,29.3,30.53,SSE,155,6.0,7.0,61,0.00,,,0.00,Wunderground v.1.15,2013-01-10 15:45:00,
2013-01-10 10:50:00,41.8,29.3,30.52,South,187,6.0,6.0,61,0.00,,,0.00,Wunderground v.1.15,2013-01-10 15:50:00,
2013-01-10 11:00:00,41.9,29.0,30.52,SE,125,5.0,10.0,60,0.00,,,0.00,Wunderground v.1.15,2013-01-10 16:00:00,
2013-01-10 11:10:00,42.1,29.2,30.52,SE,125,8.0,8.0,60,0.00,,,0.00,Wunderground v.1.15,2013-01-10 16:10:00,
2013-01-10 11:15:00,42.4,29.5,30.52,SSE,156,7.0,9.0,60,0.00,,,0.00,Wunderground v.1.15,2013-01-10 16:15:00,
2013-01-10 11:25:00,42.3,29.0,30.52,SE,132,7.0,7.0,59,0.00,,,0.00,Wunderground v.1.15,2013-01-10 16:25:00,
2013-01-10 11:35:00,42.8,29.9,30.51,SE,133,5.0,5.0,60,0.00,,,0.00,Wunderground v.1.15,2013-01-10 16:35:00,
2013-01-10 11:45:00,43.1,29.7,30.50,East,93,6.0,8.0,59,0.00,,,0.00,Wunderground v.1.15,2013-01-10 16:45:00,
2013-01-10 11:55:00,43.3,29.9,30.50,SSE,149,5.0,8.0,59,0.00,,,0.00,Wunderground v.1.15,2013-01-10 16:55:00,
2013-01-10 12:00:00,43.6,30.6,30.50,ESE,104,5.0,9.0,60,0.00,,,0.00,Wunderground v.1.15,2013-01-10 17:00:00,
2013-01-10 12:10:00,43.6,29.8,30.49,ESE,115,7.0,9.0,58,0.00,,,0.00,Wunderground v.1.15,2013-01-10 17:10:00,
2013-01-10 12:15:00,43.5,29.7,30.49,ESE,111,7.0,9.0,58,0.00,,,0.00,Wunderground v.1.15,2013-01-10 17:15:00,
2013-01-10 12:25:00,43.9,29.6,30.49,SSE,160,5.0,6.0,57,0.00,,,0.00,Wunderground v.1.15,2013-01-10 17:25:00,
2013-01-10 12:35:00,44.0,29.3,30.48,SE,138,6.0,7.0,56,0.00,,,0.00,Wunderground v.1.15,2013-01-10 17:35:00,
2013-01-10 12:40:00,43.8,29.1,30.48,SE,136,7.0,8.0,56,0.00,,,0.00,Wunderground v.1.15,2013-01-10 17:40:00,
2013-01-10 12:50:00,44.2,29.5,30.49,SE,142,5.0,5.0,56,0.00,,,0.00,Wunderground v.1.15,2013-01-10 17:50:00,
2013-01-10 13:00:00,44.4,29.7,30.48,ESE,111,7.0,11.0,56,0.00,,,0.00,Wunderground v.1.15,2013-01-10 18:00:00,
2013-01-10 13:10:00,44.8,30.9,30.48,East,93,6.0,10.0,58,0.00,,,0.00,Wunderground v.1.15,2013-01-10 18:10:00,
2013-01-10 13:20:00,44.9,30.6,30.48,ESE,121,6.0,8.0,57,0.00,,,0.00,Wunderground v.1.15,2013-01-10 18:20:00,
2013-01-10 13:25:00,44.9,30.1,30.48,SSE,165,5.0,8.0,56,0.00,,,0.00,Wunderground v.1.15,2013-01-10 18:25:00,
2013-01-10 13:35:00,45.4,30.6,30.48,East,97,5.0,10.0,56,0.00,,,0.00,Wunderground v.1.15,2013-01-10 18:35:00,
2013-01-10 13:40:00,45.2,30.9,30.48,ESE,110,6.0,8.0,57,0.00,,,0.00,Wunderground v.1.15,2013-01-10 18:40:00,
2013-01-10 13:50:00,45.2,30.4,30.47,East,91,8.0,8.0,56,0.00,,,0.00,Wunderground v.1.15,2013-01-10 18:50:00,
2013-01-10 13:55:00,45.7,31.3,30.48,ESE,121,6.0,8.0,57,0.00,,,0.00,Wunderground v.1.15,2013-01-10 18:55:00,
2013-01-10 14:00:00,45.3,29.6,30.48,ESE,114,5.0,5.0,54,0.00,,,0.00,Wunderground v.1.15,2013-01-10 19:00:00,
2013-01-10 14:10:00,45.6,30.8,30.48,ESE,105,5.0,9.0,56,0.00,,,0.00,Wunderground v.1.15,2013-01-10 19:10:00,
2013-01-10 14:20:00,45.7,30.4,30.48,ESE,117,7.0,7.0,55,0.00,,,0.00,Wunderground v.1.15,2013-01-10 19:20:00,
2013-01-10 14:30:00,45.8,31.0,30.49,East,88,7.0,7.0,56,0.00,,,0.00,Wunderground v.1.15,2013-01-10 19:30:00,
2013-01-10 14:35:00,45.7,30.0,30.49,SE,131,7.0,7.0,54,0.00,,,0.00,Wunderground v.1.15,2013-01-10 19:35:00,
2013-01-10 14:40:00,45.7,30.0,30.48,SE,143,6.0,6.0,54,0.00,,,0.00,Wunderground v.1.15,2013-01-10 19:40:00,
2013-01-10 14:50:00,45.9,31.1,30.48,SE,128,6.0,6.0,56,0.00,,,0.00,Wunderground v.1.15,2013-01-10 19:50:00,
2013-01-10 14:55:00,46.0,30.3,30.48,ESE,121,6.0,6.0,54,0.00,,,0.00,Wunderground v.1.15,2013-01-10 19:55:00,
2013-01-10 15:00:00,46.1,30.4,30.48,SE,131,6.0,6.0,54,0.00,,,0.00,Wunderground v.1.15,2013-01-10 20:00:00,
2013-01-10 15:10:00,46.0,29.8,30.48,SE,126,5.0,5.0,53,0.00,,,0.00,Wunderground v.1.15,2013-01-10 20:10:00,
2013-01-10 15:15:00,46.3,30.1,30.48,SE,135,4.0,5.0,53,0.00,,,0.00,Wunderground v.1.15,2013-01-10 20:15:00,
2013-01-10 15:20:00,46.1,29.9,30.48,SSE,156,4.0,6.0,53,0.00,,,0.00,Wunderground v.1.15,2013-01-10 20:20:00,
2013-01-10 15:35:00,46.1,30.4,30.48,SE,134,4.0,6.0,54,0.00,,,0.00,Wunderground v.1.15,2013-01-10 20:35:00,
2013-01-10 15:45:00,46.3,30.1,30.49,ESE,121,4.0,5.0,53,0.00,,,0.00,Wunderground v.1.15,2013-01-10 20:45:00,
2013-01-10 15:50:00,46.2,30.0,30.49,ESE,121,3.0,5.0,53,0.00,,,0.00,Wunderground v.1.15,2013-01-10 20:50:00,
2013-01-10 16:00:00,45.6,30.3,30.49,SE,142,5.0,5.0,55,0.00,,,0.00,Wunderground v.1.15,2013-01-10 21:00:00,
2013-01-10 16:10:00,45.5,30.3,30.49,ESE,120,3.0,3.0,55,0.00,,,0.00,Wunderground v.1.15,2013-01-10 21:10:00,
2013-01-10 16:15:00,45.3,30.1,30.49,SE,125,3.0,5.0,55,0.00,,,0.00,Wunderground v.1.15,2013-01-10 21:15:00,
2013-01-10 16:20:00,45.0,29.8,30.49,SE,128,4.0,4.0,55,0.00,,,0.00,Wunderground v.1.15,2013-01-10 21:20:00,
2013-01-10 16:30:00,44.4,30.1,30.49,ESE,108,3.0,3.0,57,0.00,,,0.00,Wunderground v.1.15,2013-01-10 21:30:00,
2013-01-10 16:40:00,44.0,29.7,30.49,SE,135,3.0,3.0,57,0.00,,,0.00,Wunderground v.1.15,2013-01-10 21:40:00,
2013-01-10 16:45:00,43.9,30.1,30.49,ESE,120,2.0,3.0,58,0.00,,,0.00,Wunderground v.1.15,2013-01-10 21:45:00,
2013-01-10 16:55:00,43.2,29.8,30.49,ESE,115,1.0,2.0,59,0.00,,,0.00,Wunderground v.1.15,2013-01-10 21:55:00,
2013-01-10 17:00:00,42.8,29.9,30.49,ESE,115,1.0,2.0,60,0.00,,,0.00,Wunderground v.1.15,2013-01-10 22:00:00,
2013-01-10 17:10:00,42.6,29.7,30.49,SSE,161,1.0,1.0,60,0.00,,,0.00,Wunderground v.1.15,2013-01-10 22:10:00,
2013-01-10 17:20:00,41.9,29.8,30.49,SSE,161,1.0,1.0,62,0.00,,,0.00,Wunderground v.1.15,2013-01-10 22:20:00,
2013-01-10 17:25:00,41.7,29.6,30.49,SE,124,1.0,2.0,62,0.00,,,0.00,Wunderground v.1.15,2013-01-10 22:25:00,
2013-01-10 17:30:00,41.5,29.8,30.49,SE,131,1.0,1.0,63,0.00,,,0.00,Wunderground v.1.15,2013-01-10 22:30:00,
2013-01-10 17:35:00,41.2,29.5,30.48,SSW,197,1.0,1.0,63,0.00,,,0.00,Wunderground v.1.15,2013-01-10 22:35:00,
2013-01-10 17:45:00,40.5,29.3,30.49,SSW,207,0.0,2.0,64,0.00,,,0.00,Wunderground v.1.15,2013-01-10 22:45:00,
2013-01-10 17:50:00,40.1,29.3,30.49,SSW,204,2.0,2.0,65,0.00,,,0.00,Wunderground v.1.15,2013-01-10 22:50:00,
2013-01-10 18:00:00,39.8,29.7,30.49,SSW,205,0.0,0.0,67,0.00,,,0.00,Wunderground v.1.15,2013-01-10 23:00:00,
2013-01-10 18:10:00,39.4,29.7,30.48,South,191,0.0,0.0,68,0.00,,,0.00,Wunderground v.1.15,2013-01-10 23:10:00,
2013-01-10 18:20:00,39.3,29.6,30.49,South,191,0.0,0.0,68,0.00,,,0.00,Wunderground v.1.15,2013-01-10 23:20:00,
2013-01-10 18:25:00,39.0,29.3,30.48,South,191,0.0,0.0,68,0.00,,,0.00,Wunderground v.1.15,2013-01-10 23:25:00,
2013-01-10 18:30:00,38.8,29.8,30.49,South,191,0.0,0.0,70,0.00,,,0.00,Wunderground v.1.15,2013-01-10 23:30:00,
2013-01-10 18:40:00,38.6,29.7,30.49,South,191,0.0,0.0,70,0.00,,,0.00,Wunderground v.1.15,2013-01-10 23:40:00,
2013-01-10 18:50:00,38.5,29.9,30.49,SSW,198,0.0,2.0,71,0.00,,,0.00,Wunderground v.1.15,2013-01-10 23:50:00,
2013-01-10 19:00:00,38.6,29.7,30.49,SW,219,1.0,1.0,70,0.00,,,0.00,Wunderground v.1.15,2013-01-11 00:00:00,
2013-01-10 19:10:00,37.9,29.7,30.49,SSW,194,1.0,1.0,72,0.00,,,0.00,Wunderground v.1.15,2013-01-11 00:10:00,
2013-01-10 19:20:00,37.9,30.0,30.49,South,169,1.0,1.0,73,0.00,,,0.00,Wunderground v.1.15,2013-01-11 00:20:00,
2013-01-10 19:30:00,37.8,29.9,30.49,West,267,0.0,1.0,73,0.00,,,0.00,Wunderground v.1.15,2013-01-11 00:30:00,
2013-01-10 19:40:00,37.7,29.8,30.50,SSW,212,0.0,0.0,73,0.00,,,0.00,Wunderground v.1.15,2013-01-11 00:40:00,
2013-01-10 19:45:00,37.7,29.8,30.49,SSW,212,0.0,0.0,73,0.00,,,0.00,Wunderground v.1.15,2013-01-11 00:45:00,
2013-01-10 19:50:00,37.7,29.8,30.49,SSW,212,0.0,0.0,73,0.00,,,0.00,Wunderground v.1.15,2013-01-11 00:50:00,
2013-01-10 20:00:00,37.9,30.0,30.49,South,188,1.0,1.0,73,0.00,,,0.00,Wunderground v.1.15,2013-01-11 01:00:00,
2013-01-10 20:10:00,38.5,29.9,30.48,SSW,210,1.0,1.0,71,0.00,,,0.00,Wunderground v.1.15,2013-01-11 01:10:00,
2013-01-10 20:20:00,38.4,30.2,30.49,SSW,210,0.0,0.0,72,0.00,,,0.00,Wunderground v.1.15,2013-01-11 01:20:00,
2013-01-10 20:25:00,38.2,30.0,30.48,SSW,210,0.0,1.0,72,0.00,,,0.00,Wunderground v.1.15,2013-01-11 01:25:00,
2013-01-10 20:35:00,38.2,30.0,30.49,SSW,210,0.0,1.0,72,0.00,,,0.00,Wunderground v.1.15,2013-01-11 01:35:00,
2013-01-10 20:40:00,38.0,29.8,30.48,SSW,210,0.0,0.0,72,0.00,,,0.00,Wunderground v.1.15,2013-01-11 01:40:00,
2013-01-10 20:50:00,37.9,29.7,30.48,SSW,210,0.0,0.0,72,0.00,,,0.00,Wunderground v.1.15,2013-01-11 01:50:00,
2013-01-10 20:55:00,38.0,29.8,30.49,SSW,210,0.0,0.0,72,0.00,,,0.00,Wunderground v.1.15,2013-01-11 01:55:00,
2013-01-10 21:00:00,37.9,30.0,30.49,SSW,210,0.0,0.0,73,0.00,,,0.00,Wunderground v.1.15,2013-01-11 02:00:00,
2013-01-10 21:10:00,37.7,30.2,30.49,SSW,210,0.0,0.0,74,0.00,,,0.00,Wunderground v.1.15,2013-01-11 02:10:00,
2013-01-10 21:20:00,37.0,29.8,30.49,SSW,201,1.0,1.0,75,0.00,,,0.00,Wunderground v.1.15,2013-01-11 02:20:00,
2013-01-10 21:25:00,37.1,29.9,30.49,WSW,240,0.0,1.0,75,0.00,,,0.00,Wunderground v.1.15,2013-01-11 02:25:00,
2013-01-10 21:35:00,37.3,29.8,30.49,WSW,238,1.0,2.0,74,0.00,,,0.00,Wunderground v.1.15,2013-01-11 02:35:00,
2013-01-10 21:40:00,37.6,30.1,30.49,SSW,194,1.0,1.0,74,0.00,,,0.00,Wunderground v.1.15,2013-01-11 02:40:00,
2013-01-10 21:50:00,37.3,30.1,30.50,SSW,194,0.0,0.0,75,0.00,,,0.00,Wunderground v.1.15,2013-01-11 02:50:00,
2013-01-10 22:00:00,37.0,29.8,30.50,SSW,203,1.0,1.0,75,0.00,,,0.00,Wunderground v.1.15,2013-01-11 03:00:00,
2013-01-10 22:10:00,36.9,29.7,30.50,SSW,203,0.0,0.0,75,0.00,,,0.00,Wunderground v.1.15,2013-01-11 03:10:00,
2013-01-10 22:25:00,36.3,29.8,30.50,SSW,193,0.0,0.0,77,0.00,,,0.00,Wunderground v.1.15,2013-01-11 03:25:00,
2013-01-10 22:35:00,36.3,29.8,30.49,SSW,193,0.0,1.0,77,0.00,,,0.00,Wunderground v.1.15,2013-01-11 03:35:00,
2013-01-10 22:40:00,36.4,29.9,30.49,SSW,197,0.0,2.0,77,0.00,,,0.00,Wunderground v.1.15,2013-01-11 03:40:00,
2013-01-10 22:50:00,35.8,29.6,30.49,SSW,201,1.0,1.0,78,0.00,,,0.00,Wunderground v.1.15,2013-01-11 03:50:00,
2013-01-10 22:55:00,35.5,29.6,30.48,SSW,205,1.0,2.0,79,0.00,,,0.00,Wunderground v.1.15,2013-01-11 03:55:00,
2013-01-10 23:00:00,35.2,29.6,30.48,SSW,200,2.0,2.0,80,0.00,,,0.00,Wunderground v.1.15,2013-01-11 04:00:00,
2013-01-10 23:10:00,34.8,29.6,30.48,WSW,238,2.0,2.0,81,0.00,,,0.00,Wunderground v.1.15,2013-01-11 04:10:00,
2013-01-10 23:20:00,34.8,29.6,30.48,WSW,238,0.0,0.0,81,0.00,,,0.00,Wunderground v.1.15,2013-01-11 04:20:00,
2013-01-10 23:30:00,35.0,29.5,30.47,SW,228,0.0,1.0,80,0.00,,,0.00,Wunderground v.1.15,2013-01-11 04:30:00,
2013-01-10 23:35:00,35.9,29.7,30.47,SW,226,1.0,2.0,78,0.00,,,0.00,Wunderground v.1.15,2013-01-11 04:35:00,
2013-01-10 23:45:00,35.6,29.1,30.47,SW,226,1.0,2.0,77,0.00,,,0.00,Wunderground v.1.15,2013-01-11 04:45:00,
2013-01-10 23:50:00,35.3,29.1,30.47,SW,226,0.0,0.0,78,0.00,,,0.00,Wunderground v.1.15,2013-01-11 04:50:00,
2013-01-10 23:55:00,35.2,29.3,30.47,SW,226,0.0,1.0,79,0.00,,,0.00,Wunderground v.1.15,2013-01-11 04:55:00,